CheckWX is a tool to help pilots better visualize weather data.  It is not intended as a substitute for an official pre-flight weather briefing.

13:58:53 UTC

ESNX TAF
Arvidsjaur Airport
Arvidsjaur, Sweden
TAF ESNX 201330Z 2014/2020 20007KT CAVOK PROB40 2015/2020 SHRA SCT040CB

Aug-20@
14:00 UTC

Aug-20 @ 14:00 UTC

Aug-20@
20:00 UTC

Aug-20 @ 20:00 UTC

TAF ESNX 201330Z 2014/2020 20007KT CAVOK
Wind
  • 200° at 7 KTS
Conditions
No significant weather
Cloud Levels
  • No significant clouds

Aug-20@
15:00 UTC

Aug-20 @ 15:00 UTC

Aug-20@
20:00 UTC

Aug-20 @ 20:00 UTC

PROB40 2015/2020 SHRA SCT040CB

Probable - 40% Likelihood

Probable - 40% Likelihood during this time.

Conditions
Rain
Cloud Levels
  • Scattered at 4,000' AGL